createdAt,value
2018-02-06T00:00:06.941Z,47.38
2018-02-06T00:01:11.155Z,39.28
2018-02-06T00:02:15.378Z,47.03
2018-02-06T00:03:20.397Z,41.35
2018-02-06T00:04:25.134Z,36.22
2018-02-06T00:05:29.544Z,42.58
2018-02-06T00:06:34.667Z,41.95
2018-02-06T00:07:40.152Z,46.08
2018-02-06T00:08:44.349Z,47.13
2018-02-06T00:09:48.579Z,45.60
2018-02-06T00:10:52.763Z,46.45
2018-02-06T00:11:57.822Z,41.78
2018-02-06T00:13:02.892Z,43.45
2018-02-06T00:14:08.040Z,44.90
2018-02-06T00:15:13.052Z,39.63
2018-02-06T00:16:17.272Z,52.72
2018-02-06T00:17:21.473Z,45.50
2018-02-06T00:18:26.456Z,47.30
2018-02-06T00:19:30.837Z,46.55
2018-02-06T00:20:35.139Z,42.20
2018-02-06T00:21:39.403Z,40.28
2018-02-06T00:22:50.347Z,47.45
2018-02-06T00:23:55.340Z,45.15
2018-02-06T00:24:59.764Z,45.28
2018-02-06T00:26:05.015Z,49.60
2018-02-06T00:27:09.374Z,42.20
2018-02-06T00:28:13.612Z,49.97
2018-02-06T00:29:19.311Z,44.15
2018-02-06T00:30:23.525Z,44.45
2018-02-06T00:31:28.463Z,45.45
2018-02-06T00:32:32.762Z,40.38
2018-02-06T00:33:37.073Z,47.85
2018-02-06T00:34:41.306Z,48.25
2018-02-06T00:35:45.680Z,41.97
2018-02-06T00:36:50.669Z,43.55
2018-02-06T00:37:54.884Z,50.65
2018-02-06T00:38:59.276Z,44.58
2018-02-06T00:40:03.734Z,51.30
2018-02-06T00:41:08.761Z,46.50
2018-02-06T00:42:12.979Z,46.75
2018-02-06T00:43:17.178Z,48.45
2018-02-06T00:44:21.410Z,41.33
2018-02-06T00:45:25.717Z,41.15
2018-02-06T00:46:30.782Z,47.58
2018-02-06T00:47:35.100Z,54.47
2018-02-06T00:48:39.508Z,50.38
2018-02-06T00:49:43.843Z,43.28
2018-02-06T00:50:48.076Z,51.80
2018-02-06T00:51:52.310Z,43.08
2018-02-06T00:52:58.500Z,47.65
2018-02-06T00:54:02.779Z,47.20
2018-02-06T00:55:07.982Z,46.75
2018-02-06T00:56:12.242Z,45.22
2018-02-06T00:57:17.211Z,56.37
2018-02-06T00:58:21.472Z,48.53
2018-02-06T00:59:26.519Z,47.85
2018-02-06T01:00:31.012Z,42.38
2018-02-06T01:01:36.053Z,57.10
2018-02-06T01:02:40.280Z,49.92
2018-02-06T01:03:44.496Z,46.67
2018-02-06T01:04:48.708Z,50.70
2018-02-06T01:05:52.209Z,46.50
2018-02-06T01:06:56.453Z,53.85
2018-02-06T01:08:01.198Z,55.97
2018-02-06T01:09:05.827Z,51.70
2018-02-06T01:10:10.818Z,45.12
2018-02-06T01:11:15.062Z,53.03
2018-02-06T01:12:19.274Z,47.28
2018-02-06T01:13:24.231Z,54.95
2018-02-06T01:14:28.751Z,54.85
2018-02-06T01:15:33.464Z,48.05
2018-02-06T01:16:37.892Z,51.72
2018-02-06T01:17:42.169Z,53.22
2018-02-06T01:18:46.396Z,46.50
2018-02-06T01:19:51.390Z,50.80
2018-02-06T01:20:56.352Z,54.22
2018-02-06T01:22:00.774Z,47.30
2018-02-06T01:23:05.072Z,49.05
2018-02-06T01:24:10.063Z,61.28
2018-02-06T01:25:14.276Z,52.95
2018-02-06T01:26:18.472Z,52.85
2018-02-06T01:27:22.684Z,51.33
2018-02-06T01:28:27.137Z,51.03
2018-02-06T01:29:31.798Z,47.97
2018-02-06T01:30:36.076Z,48.05
2018-02-06T01:31:41.046Z,50.05
2018-02-06T01:32:45.287Z,48.13
2018-02-06T01:33:49.499Z,53.70
2018-02-06T01:34:53.712Z,46.00
2018-02-06T01:35:58.579Z,46.35
2018-02-06T01:37:03.008Z,53.53
2018-02-06T01:38:07.298Z,51.60
2018-02-06T01:39:12.271Z,48.00
2018-02-06T01:40:16.508Z,49.45
2018-02-06T01:41:20.731Z,50.25
2018-02-06T01:42:24.939Z,51.72
2018-02-06T01:43:30.500Z,50.30
2018-02-06T01:44:35.562Z,51.97
2018-02-06T01:45:40.596Z,45.88
2018-02-06T01:46:44.783Z,53.87
2018-02-06T01:47:49.783Z,57.60
2018-02-06T01:48:53.997Z,46.40
2018-02-06T01:50:06.334Z,47.92
2018-02-06T01:51:11.304Z,57.05
2018-02-06T01:52:15.496Z,48.25
2018-02-06T01:53:19.712Z,45.80
2018-02-06T01:54:23.951Z,51.10
2018-02-06T01:55:28.675Z,44.55
2018-02-06T01:56:34.011Z,53.97
2018-02-06T01:57:38.349Z,61.15
2018-02-06T01:58:43.363Z,50.50
2018-02-06T01:59:47.618Z,47.55
2018-02-06T02:00:51.891Z,46.15
2018-02-06T02:01:56.159Z,54.35
2018-02-06T02:03:01.962Z,50.22
2018-02-06T02:04:06.516Z,46.17
2018-02-06T02:05:11.014Z,47.88
2018-02-06T02:06:15.987Z,43.53
2018-02-06T02:07:20.227Z,54.05
2018-02-06T02:08:24.417Z,67.15
2018-02-06T02:09:28.972Z,52.22
2018-02-06T02:10:33.526Z,52.33
2018-02-06T02:11:37.780Z,45.00
2018-02-06T02:12:41.985Z,46.08
2018-02-06T02:13:47.762Z,51.15
2018-02-06T02:14:51.942Z,50.88
2018-02-06T02:15:56.603Z,48.90
2018-02-06T02:17:01.656Z,53.42
2018-02-06T02:18:05.962Z,54.28
2018-02-06T02:19:10.994Z,45.53
2018-02-06T02:20:15.187Z,51.42
2018-02-06T02:21:19.443Z,52.97
2018-02-06T02:22:23.679Z,50.95
2018-02-06T02:23:28.098Z,50.20
2018-02-06T02:24:32.441Z,47.78
2018-02-06T02:25:36.726Z,50.28
2018-02-06T02:26:41.018Z,48.83
2018-02-06T02:27:45.237Z,46.42
2018-02-06T02:28:49.433Z,49.97
2018-02-06T02:29:53.642Z,49.28
2018-02-06T02:30:58.236Z,53.75
2018-02-06T02:32:02.659Z,56.97
2018-02-06T02:33:06.880Z,52.88
2018-02-06T02:34:11.091Z,50.40
2018-02-06T02:35:15.299Z,55.88
2018-02-06T02:36:19.524Z,48.17
2018-02-06T02:37:23.782Z,56.40
2018-02-06T02:38:28.936Z,58.90
2018-02-06T02:39:33.451Z,51.20
2018-02-06T02:40:37.690Z,50.92
2018-02-06T02:41:41.927Z,45.63
2018-02-06T04:39:03.175Z,46.80
2018-02-06T04:40:07.480Z,52.17
2018-02-06T04:41:11.689Z,54.22
2018-02-06T04:42:16.169Z,49.67
2018-02-06T04:43:20.376Z,52.17
2018-02-06T04:44:24.637Z,57.92
2018-02-06T04:45:30.413Z,55.92
2018-02-06T04:46:34.694Z,49.85
2018-02-06T04:47:38.900Z,56.40
2018-02-06T04:48:43.101Z,48.80
2018-02-06T04:49:47.330Z,52.60
2018-02-06T04:52:02.639Z,60.85
2018-02-06T04:53:06.931Z,47.92
2018-02-06T04:54:11.174Z,51.45
2018-02-06T04:55:16.128Z,45.83
2018-02-06T04:56:20.337Z,47.67
2018-02-06T04:57:24.528Z,46.92
2018-02-06T04:58:29.299Z,58.55
2018-02-06T04:59:33.741Z,65.40
2018-02-06T05:00:38.768Z,63.45
2018-02-06T05:01:42.965Z,52.25
2018-02-06T05:02:47.179Z,61.45
2018-02-06T05:03:51.377Z,48.80
2018-02-06T05:04:56.045Z,51.97
2018-02-06T05:06:00.428Z,57.00
2018-02-06T05:07:05.071Z,50.47
2018-02-06T05:08:09.334Z,48.95
2018-02-06T05:09:13.542Z,52.13
2018-02-06T05:10:17.782Z,51.08
2018-02-06T05:11:21.982Z,52.70
2018-02-06T05:12:26.506Z,54.78
2018-02-06T05:13:32.305Z,54.03
2018-02-06T05:14:36.520Z,52.50
2018-02-06T05:15:40.764Z,47.95
2018-02-06T05:16:45.028Z,49.88
2018-02-06T05:17:50.068Z,58.45
2018-02-06T05:18:54.254Z,49.70
2018-02-06T05:19:59.504Z,48.20
2018-02-06T05:21:03.740Z,51.72
2018-02-06T05:22:08.282Z,50.83
2018-02-06T05:23:13.836Z,53.55
2018-02-06T05:24:18.029Z,48.45
2018-02-06T05:25:22.300Z,48.15
2018-02-06T05:26:26.666Z,49.00
2018-02-06T05:27:31.482Z,49.15
2018-02-06T05:28:35.692Z,55.03
2018-02-06T05:29:39.922Z,47.40
2018-02-06T05:30:44.165Z,49.58
2018-02-06T05:31:48.439Z,48.87
2018-02-06T05:32:52.661Z,46.05
2018-02-06T05:33:58.287Z,57.72
2018-02-06T05:35:02.555Z,49.70
2018-02-06T05:36:06.784Z,55.55
2018-02-06T05:37:11.847Z,48.20
2018-02-06T05:38:16.046Z,52.55
2018-02-06T05:39:20.261Z,53.53
2018-02-06T05:40:24.455Z,40.95
2018-02-06T05:41:29.130Z,56.33
2018-02-06T05:42:34.177Z,48.80
2018-02-06T05:43:38.393Z,52.53
2018-02-06T05:44:42.590Z,42.85
2018-02-06T05:45:47.562Z,50.40
2018-02-06T05:46:51.776Z,55.78
2018-02-06T05:47:56.097Z,48.35
2018-02-06T05:49:01.836Z,45.12
2018-02-06T05:50:06.314Z,45.92
2018-02-06T05:51:10.574Z,47.38
2018-02-06T05:52:14.759Z,45.67
2018-02-06T05:53:19.013Z,49.55
2018-02-06T05:54:23.200Z,52.95
2018-02-06T05:55:27.630Z,56.28
2018-02-06T05:56:32.055Z,49.53
2018-02-06T05:57:37.048Z,52.90
2018-02-06T05:58:41.285Z,58.40
2018-02-06T05:59:45.485Z,47.20
2018-02-06T06:00:49.729Z,50.67
2018-02-06T06:01:54.792Z,47.13
2018-02-06T06:02:59.279Z,45.67
2018-02-06T06:04:05.239Z,57.67
2018-02-06T06:05:10.242Z,43.20
2018-02-06T06:06:14.485Z,45.40
2018-02-06T06:07:19.443Z,41.63
2018-02-06T06:08:23.665Z,41.95
2018-02-06T06:09:28.410Z,40.10
2018-02-06T06:10:33.570Z,48.20
2018-02-06T06:11:38.578Z,46.80
2018-02-06T06:12:42.759Z,48.25
2018-02-06T06:13:47.043Z,52.22
2018-02-06T06:14:51.246Z,51.25
2018-02-06T06:15:55.470Z,54.75
2018-02-06T06:16:59.749Z,58.85
2018-02-06T06:18:04.722Z,54.75
2018-02-06T06:19:08.974Z,52.53
2018-02-06T06:20:13.154Z,45.83
2018-02-06T06:21:17.339Z,45.90
2018-02-06T06:22:21.552Z,48.63
2018-02-06T06:23:25.830Z,41.65
2018-02-06T06:24:30.126Z,49.53
2018-02-06T06:25:34.338Z,55.33
2018-02-06T06:26:38.576Z,42.83
2018-02-06T06:27:43.563Z,55.10
2018-02-06T06:28:47.765Z,49.03
2018-02-06T06:29:52.018Z,46.90
2018-02-06T06:30:56.596Z,50.30
2018-02-06T06:32:00.831Z,52.72
2018-02-06T06:33:05.074Z,52.90
2018-02-06T06:34:09.296Z,47.90
2018-02-06T06:35:13.507Z,59.00
2018-02-06T06:36:17.697Z,53.25
2018-02-06T06:37:22.674Z,55.05
2018-02-06T06:38:28.409Z,54.47
2018-02-06T06:39:32.711Z,50.60
2018-02-06T06:40:37.318Z,50.35
2018-02-06T06:41:41.533Z,56.22
2018-02-06T06:42:45.739Z,50.50
2018-02-06T06:43:50.019Z,51.47
2018-02-06T06:44:54.268Z,43.10
2018-02-06T06:45:59.267Z,53.50
2018-02-06T06:47:04.291Z,58.45
2018-02-06T06:48:08.510Z,55.03
2018-02-06T06:49:12.756Z,49.65
2018-02-06T06:50:16.944Z,49.67
2018-02-06T06:51:21.912Z,59.95
2018-02-06T06:52:26.722Z,52.25
2018-02-06T06:53:31.002Z,47.90
2018-02-06T06:54:36.588Z,47.88
2018-02-06T06:55:40.824Z,53.97
2018-02-06T06:56:45.049Z,58.25
2018-02-06T06:57:49.255Z,53.35
2018-02-06T06:58:54.954Z,52.17
2018-02-06T06:59:59.563Z,44.33
2018-02-06T07:01:04.049Z,49.28
2018-02-06T07:02:08.263Z,47.62
2018-02-06T07:03:12.479Z,48.10
2018-02-06T07:04:17.454Z,45.97
2018-02-06T07:05:21.700Z,50.20
2018-02-06T07:06:26.489Z,55.88
2018-02-06T07:07:30.820Z,57.22
2018-02-06T07:08:35.095Z,51.22
2018-02-06T07:09:39.466Z,57.17
2018-02-06T07:10:43.768Z,45.47
2018-02-06T07:11:47.971Z,53.55
2018-02-06T07:12:52.184Z,51.50
2018-02-06T07:13:56.566Z,53.85
2018-02-06T07:15:00.874Z,55.22
2018-02-06T07:16:05.511Z,52.38
2018-02-06T07:17:09.998Z,53.50
2018-02-06T07:18:14.972Z,53.70
2018-02-06T07:19:19.165Z,64.37
2018-02-06T07:20:23.428Z,53.50
2018-02-06T07:21:27.923Z,55.25
2018-02-06T07:22:32.334Z,44.88
2018-02-06T07:23:37.342Z,58.28
2018-02-06T07:24:41.542Z,51.47
2018-02-06T07:25:45.750Z,51.33
2018-02-06T07:26:49.988Z,57.22
2018-02-06T07:27:54.180Z,52.47
2018-02-06T07:28:58.879Z,51.28
2018-02-06T07:30:03.125Z,56.05
2018-02-06T07:31:07.479Z,59.88
2018-02-06T07:32:11.714Z,55.78
2018-02-06T07:33:15.959Z,52.95
2018-02-06T07:34:20.176Z,51.67
2018-02-06T07:35:24.377Z,50.65
2018-02-06T07:36:28.802Z,46.50
2018-02-06T07:37:33.639Z,60.38
2018-02-06T07:38:37.923Z,49.28
2018-02-06T07:39:42.116Z,56.63
2018-02-06T07:40:46.324Z,53.67
2018-02-06T07:41:50.572Z,58.25
2018-02-06T07:42:54.760Z,55.63
2018-02-06T07:43:59.257Z,53.50
2018-02-06T07:45:03.664Z,50.67
2018-02-06T07:46:07.962Z,42.53
2018-02-06T07:47:12.215Z,57.80
2018-02-06T07:48:16.410Z,59.13
2018-02-06T07:49:20.610Z,46.72
2018-02-06T07:50:25.699Z,51.72
2018-02-06T07:51:30.294Z,46.97
2018-02-06T07:52:34.571Z,47.38
2018-02-06T07:53:39.603Z,48.87
2018-02-06T07:54:44.574Z,57.60
2018-02-06T07:55:48.785Z,48.95
2018-02-06T07:56:52.963Z,53.65
2018-02-06T07:57:59.727Z,50.65
2018-02-06T07:59:04.008Z,51.83
2018-02-06T08:00:08.273Z,51.42
2018-02-06T08:01:12.534Z,40.72
2018-02-06T08:02:16.744Z,45.72
2018-02-06T08:03:21.017Z,42.85
2018-02-06T08:04:25.257Z,45.42
2018-02-06T08:05:29.681Z,47.85
2018-02-06T08:06:34.020Z,48.80
2018-02-06T08:07:39.283Z,45.00
2018-02-06T08:08:43.519Z,44.83
2018-02-06T08:09:47.704Z,45.45
2018-02-06T08:10:51.888Z,50.00
2018-02-06T08:11:57.037Z,41.83
2018-02-06T08:13:01.307Z,46.60
2018-02-06T08:14:05.591Z,42.25
2018-02-06T08:15:09.826Z,48.70
2018-02-06T08:16:14.046Z,41.95
2018-02-06T08:17:18.258Z,42.60
2018-02-06T08:18:22.462Z,47.70
2018-02-06T08:19:27.519Z,47.35
2018-02-06T08:20:31.991Z,41.25
2018-02-06T08:21:36.550Z,43.03
2018-02-06T08:22:41.532Z,48.95
2018-02-06T08:23:45.799Z,42.45
2018-02-06T08:24:50.773Z,47.15
2018-02-06T08:25:55.000Z,42.40
2018-02-06T08:26:59.336Z,44.65
2018-02-06T08:28:04.702Z,42.25
2018-02-06T08:29:09.334Z,41.60
2018-02-06T08:30:13.520Z,50.42
2018-02-06T08:31:17.748Z,46.35
2018-02-06T08:32:21.942Z,43.03
2018-02-06T08:33:27.648Z,43.13
2018-02-06T08:34:31.898Z,40.90
2018-02-06T08:35:36.189Z,39.33
2018-02-06T08:36:41.346Z,42.50
2018-02-06T08:37:46.331Z,40.38
2018-02-06T08:38:50.573Z,41.83
2018-02-06T08:39:56.310Z,36.28
2018-02-06T08:41:01.487Z,33.67
2018-02-06T08:42:05.865Z,39.90
2018-02-06T08:43:10.892Z,37.72
2018-02-06T08:44:15.145Z,32.60
2018-02-06T08:45:19.350Z,35.85
2018-02-06T08:46:23.569Z,37.55
2018-02-06T08:47:27.919Z,38.03
2018-02-06T08:48:32.321Z,39.70
2018-02-06T08:49:36.810Z,36.92
2018-02-06T08:50:41.001Z,39.97
2018-02-06T08:51:45.965Z,33.45
2018-02-06T08:52:50.152Z,37.50
2018-02-06T08:53:54.341Z,34.88
2018-02-06T08:54:59.565Z,37.10
2018-02-06T08:56:04.566Z,37.65
2018-02-06T08:57:09.578Z,35.15
2018-02-06T08:58:13.769Z,40.03
2018-02-06T08:59:17.989Z,39.38
2018-02-06T09:00:22.272Z,37.05
2018-02-06T09:01:28.787Z,35.45
2018-02-06T09:02:33.124Z,40.05
2018-02-06T09:03:37.380Z,37.17
2018-02-06T09:04:41.595Z,39.63
2018-02-06T09:05:45.835Z,33.60
2018-02-06T09:06:50.123Z,35.20
2018-02-06T09:07:54.346Z,34.80
2018-02-06T09:08:58.686Z,37.10
2018-02-06T09:10:03.828Z,35.17
2018-02-06T09:11:08.053Z,27.75
2018-02-06T09:12:12.260Z,32.70
2018-02-06T09:13:16.470Z,30.52
2018-02-06T09:14:20.693Z,28.52
2018-02-06T09:15:25.946Z,31.70
2018-02-06T09:16:30.630Z,36.15
2018-02-06T09:17:34.858Z,34.50
2018-02-06T09:18:39.347Z,28.02
2018-02-06T09:19:43.550Z,28.75
2018-02-06T09:20:47.783Z,32.90
2018-02-06T09:21:51.998Z,29.30
2018-02-06T09:22:56.329Z,35.20
2018-02-06T09:24:00.614Z,30.45
2018-02-06T09:25:04.861Z,29.37
2018-02-06T09:26:09.979Z,35.45
2018-02-06T09:27:14.969Z,30.30
2018-02-06T09:28:19.174Z,35.45
2018-02-06T09:29:23.391Z,27.95
2018-02-06T09:30:28.448Z,28.50
2018-02-06T09:31:33.380Z,34.47
2018-02-06T09:32:38.416Z,27.95
2018-02-06T09:33:43.408Z,27.60
2018-02-06T09:34:47.608Z,27.30
2018-02-06T09:35:51.796Z,26.12
2018-02-06T09:36:56.715Z,25.88
2018-02-06T09:38:00.993Z,25.65
2018-02-06T09:39:05.308Z,27.13
2018-02-06T09:40:10.343Z,24.42
2018-02-06T09:41:14.888Z,26.95
2018-02-06T09:42:19.179Z,30.60
2018-02-06T09:43:23.377Z,24.95
2018-02-06T09:44:28.316Z,28.60
2018-02-06T09:45:33.478Z,28.35
2018-02-06T09:46:37.774Z,23.00
2018-02-06T09:47:42.101Z,24.75
2018-02-06T09:48:46.327Z,24.52
2018-02-06T09:49:50.525Z,33.67
2018-02-06T09:50:54.722Z,28.33
2018-02-06T09:51:59.319Z,25.83
2018-02-06T09:53:03.711Z,22.37
2018-02-06T09:54:08.735Z,29.35
2018-02-06T09:55:12.958Z,23.90
2018-02-06T09:56:17.147Z,24.37
2018-02-06T09:57:21.334Z,20.17
2018-02-06T09:58:26.144Z,23.50
2018-02-06T09:59:30.589Z,26.67
2018-02-06T10:00:35.654Z,24.20
2018-02-06T10:01:39.856Z,21.10
2018-02-06T10:02:44.761Z,21.62
2018-02-06T10:03:49.051Z,25.67
2018-02-06T10:04:53.247Z,21.48
2018-02-06T10:05:58.787Z,24.40
2018-02-06T10:07:03.140Z,24.48
2018-02-06T10:08:07.410Z,22.25
2018-02-06T10:09:11.690Z,26.48
2018-02-06T10:10:15.928Z,23.67
2018-02-06T10:11:20.884Z,25.12
2018-02-06T10:12:25.155Z,22.23
2018-02-06T10:13:29.740Z,20.55
2018-02-06T10:14:34.109Z,20.25
2018-02-06T10:15:38.316Z,22.17
2018-02-06T10:16:43.294Z,36.10
2018-02-06T10:17:47.471Z,20.23
2018-02-06T10:18:51.682Z,24.98
2018-02-06T10:19:56.157Z,19.62
2018-02-06T10:21:00.607Z,19.67
2018-02-06T10:22:05.758Z,17.92
2018-02-06T10:23:09.960Z,18.17
2018-02-06T10:24:14.135Z,21.50
2018-02-06T10:25:18.330Z,19.77
2018-02-06T10:26:22.530Z,20.60
2018-02-06T10:27:26.853Z,20.15
2018-02-06T10:28:32.608Z,19.33
2018-02-06T10:29:36.894Z,27.48
2018-02-06T10:30:41.093Z,19.10
2018-02-06T10:31:45.264Z,15.57
2018-02-06T10:32:50.242Z,16.92
2018-02-06T10:33:54.452Z,15.05
2018-02-06T10:35:00.663Z,13.18
2018-02-06T10:36:05.649Z,15.40
2018-02-06T10:37:09.849Z,13.20
2018-02-06T10:38:14.045Z,13.90
2018-02-06T10:39:18.219Z,17.77
2018-02-06T10:40:23.192Z,11.70
2018-02-06T10:41:28.266Z,14.98
2018-02-06T10:42:33.035Z,18.30
2018-02-06T10:43:37.235Z,15.07
2018-02-06T10:44:41.436Z,13.98
2018-02-06T10:45:46.446Z,26.67
2018-02-06T10:46:50.638Z,15.75
2018-02-06T10:47:54.838Z,18.83
2018-02-06T10:48:59.366Z,16.00
2018-02-06T10:50:03.773Z,14.00
2018-02-06T10:51:08.169Z,16.92
2018-02-06T10:52:12.382Z,13.62
2018-02-06T10:53:16.573Z,11.57
2018-02-06T10:54:20.779Z,17.00
2018-02-06T10:55:24.982Z,12.48
2018-02-06T10:56:29.314Z,11.93
2018-02-06T10:57:33.660Z,13.02
2018-02-06T10:58:37.885Z,12.48
2018-02-06T10:59:42.434Z,10.30
2018-02-06T11:00:47.384Z,11.05
2018-02-06T11:01:51.600Z,12.27
2018-02-06T11:02:55.899Z,12.70
2018-02-06T11:04:01.008Z,11.43
2018-02-06T11:05:05.307Z,11.07
2018-02-06T11:06:09.548Z,14.80
2018-02-06T11:07:13.757Z,11.57
2018-02-06T11:08:17.973Z,13.85
2018-02-06T11:09:22.171Z,10.02
2018-02-06T11:10:28.099Z,13.82
2018-02-06T11:11:32.411Z,9.73
2018-02-06T11:12:36.640Z,13.80
2018-02-06T11:13:40.818Z,12.68
2018-02-06T11:14:45.009Z,12.45
2018-02-06T11:15:49.244Z,10.75
2018-02-06T11:16:53.430Z,10.80
2018-02-06T11:17:57.826Z,11.02
2018-02-06T11:19:02.125Z,12.27
2018-02-06T11:20:06.544Z,13.18
2018-02-06T11:21:10.811Z,17.98
2018-02-06T11:22:14.979Z,9.88
2018-02-06T11:23:19.157Z,12.20
2018-02-06T11:24:24.128Z,13.80
2018-02-06T11:25:29.407Z,13.80
2018-02-06T11:26:34.571Z,13.82
2018-02-06T11:27:38.784Z,10.43
2018-02-06T11:28:42.962Z,12.18
2018-02-06T11:29:47.126Z,10.38
2018-02-06T11:30:51.302Z,13.43
2018-02-06T11:31:56.413Z,22.00
2018-02-06T11:33:01.534Z,10.02
2018-02-06T11:34:05.887Z,13.55
2018-02-06T11:35:10.081Z,10.90
2018-02-06T11:36:15.507Z,10.82
2018-02-06T11:37:20.464Z,11.05
2018-02-06T11:38:24.813Z,13.02
2018-02-06T11:39:29.164Z,11.02
2018-02-06T11:40:34.186Z,12.95
2018-02-06T11:41:38.430Z,11.52
2018-02-06T11:42:43.359Z,18.08
2018-02-06T11:43:47.541Z,11.27
2018-02-06T11:44:51.725Z,11.30
2018-02-06T11:45:55.966Z,12.32
2018-02-06T11:47:00.307Z,11.57
2018-02-06T11:48:04.532Z,12.13
2018-02-06T11:49:08.745Z,10.82
2018-02-06T11:50:12.967Z,12.70
2018-02-06T11:51:17.143Z,10.52
2018-02-06T11:52:21.325Z,11.38
2018-02-06T11:53:25.568Z,12.02
2018-02-06T11:54:29.910Z,13.00
2018-02-06T11:55:34.645Z,12.85
2018-02-06T11:56:38.922Z,21.33
2018-02-06T11:57:43.105Z,11.25
2018-02-06T11:58:48.043Z,10.43
2018-02-06T11:59:52.999Z,11.38
2018-02-06T12:00:58.225Z,14.00
2018-02-06T12:02:03.547Z,12.32
2018-02-06T12:03:08.078Z,11.98
2018-02-06T12:04:12.251Z,11.02
2018-02-06T12:05:16.437Z,12.43
2018-02-06T12:06:20.634Z,11.60
2018-02-06T12:07:24.887Z,11.25
2018-02-06T12:08:29.193Z,10.40
2018-02-06T12:09:34.414Z,14.75
2018-02-06T12:10:38.833Z,10.85
2018-02-06T12:11:43.011Z,13.10
2018-02-06T12:12:47.242Z,9.75
2018-02-06T12:13:51.469Z,13.57
2018-02-06T12:14:56.986Z,11.55
2018-02-06T12:16:01.251Z,21.02
2018-02-06T12:17:05.509Z,30.98
2018-02-06T12:18:09.705Z,12.68
2018-02-06T12:19:13.899Z,14.43
2018-02-06T12:20:18.164Z,39.75
2018-02-06T12:21:22.375Z,88.70
2018-02-06T12:22:26.706Z,29.87
2018-02-06T12:23:30.980Z,53.80
2018-02-06T12:24:35.249Z,22.62
2018-02-06T12:25:39.512Z,305.10
2018-02-06T12:26:43.695Z,102.43
2018-02-06T12:27:47.867Z,27.17
2018-02-06T12:28:52.821Z,15.13
2018-02-06T12:29:57.100Z,14.50
2018-02-06T12:31:01.383Z,12.32
2018-02-06T12:32:05.613Z,19.02
2018-02-06T12:33:10.586Z,10.07
2018-02-06T12:34:14.862Z,13.20
2018-02-06T12:35:19.054Z,42.15
2018-02-06T12:36:23.227Z,57.28
2018-02-06T12:37:27.463Z,39.50
2018-02-06T12:38:31.804Z,11.70
2018-02-06T12:39:36.891Z,11.48
2018-02-06T12:40:41.102Z,12.02
2018-02-06T12:41:45.274Z,14.85
2018-02-06T12:42:50.221Z,15.48
2018-02-06T12:43:54.428Z,12.35
2018-02-06T12:44:59.143Z,12.37
2018-02-06T12:46:04.109Z,10.48
2018-02-06T12:47:08.362Z,19.30
2018-02-06T12:48:13.299Z,11.70
2018-02-06T12:49:18.235Z,13.62
2018-02-06T12:50:22.412Z,26.42
2018-02-06T12:51:26.858Z,11.45
2018-02-06T12:52:31.445Z,11.73
2018-02-06T12:53:35.693Z,12.65
2018-02-06T12:54:39.846Z,9.50
2018-02-06T12:55:44.035Z,16.90
2018-02-06T12:56:48.232Z,7.00
2018-02-06T12:57:52.426Z,17.90
2018-02-06T12:58:57.424Z,10.60
2018-02-06T13:00:01.948Z,12.32
2018-02-06T13:01:06.527Z,11.93
2018-02-06T13:02:10.713Z,15.20
2018-02-06T13:03:15.656Z,12.40
2018-02-06T13:04:19.839Z,11.85
2018-02-06T13:05:24.966Z,10.77
2018-02-06T13:06:29.575Z,10.27
2018-02-06T13:07:34.182Z,13.27
2018-02-06T13:08:40.089Z,11.93
2018-02-06T13:09:44.292Z,11.02
2018-02-06T13:10:48.454Z,16.65
2018-02-06T13:11:52.713Z,11.00
2018-02-06T13:12:57.166Z,12.77
2018-02-06T13:14:01.991Z,14.43
2018-02-06T13:15:06.213Z,13.18
2018-02-06T13:16:10.406Z,10.57
2018-02-06T13:17:14.622Z,12.52
2018-02-06T13:18:18.786Z,13.73
2018-02-06T13:19:23.718Z,13.32
2018-02-06T13:20:28.524Z,15.05
2018-02-06T13:21:32.865Z,14.18
2018-02-06T13:22:37.215Z,13.50
2018-02-06T13:23:41.414Z,11.90
2018-02-06T13:24:45.598Z,12.25
2018-02-06T13:25:49.766Z,12.80
2018-02-06T13:26:54.012Z,11.27
2018-02-06T13:27:59.017Z,13.15
2018-02-06T13:29:03.892Z,15.20
2018-02-06T13:30:08.080Z,15.75
2018-02-06T13:31:12.268Z,12.35
2018-02-06T13:32:17.203Z,8.80
2018-02-06T13:33:22.566Z,15.55
2018-02-06T13:34:27.461Z,12.93
2018-02-06T13:35:32.432Z,15.68
2018-02-06T13:36:36.648Z,12.57
2018-02-06T13:37:40.842Z,12.80
2018-02-06T13:38:45.106Z,16.08
2018-02-06T13:39:49.284Z,10.90
2018-02-06T13:40:54.118Z,13.43
2018-02-06T13:41:58.722Z,11.15
2018-02-06T13:43:03.287Z,11.23
2018-02-06T13:44:08.604Z,12.50
2018-02-06T13:45:13.679Z,7.82
2018-02-06T13:46:17.843Z,9.88
2018-02-06T13:47:22.041Z,13.82
2018-02-06T13:48:26.397Z,9.70
2018-02-06T13:49:31.126Z,12.00
2018-02-06T13:50:36.162Z,9.80
2018-02-06T13:51:40.403Z,13.10
2018-02-06T13:52:44.597Z,11.23
2018-02-06T13:53:48.819Z,20.30
2018-02-06T13:54:53.733Z,13.98
2018-02-06T13:55:58.867Z,10.85
2018-02-06T13:57:03.473Z,8.82
2018-02-06T13:58:07.734Z,14.80
2018-02-06T13:59:12.055Z,17.80
2018-02-06T14:00:16.233Z,12.60
2018-02-06T14:01:20.418Z,11.35
2018-02-06T14:02:26.122Z,15.23
2018-02-06T14:03:31.601Z,15.75
2018-02-06T14:04:36.304Z,12.00
2018-02-06T14:05:41.348Z,10.18
2018-02-06T14:06:46.306Z,12.10
2018-02-06T14:07:50.485Z,13.98
2018-02-06T14:08:55.473Z,11.05
2018-02-06T14:10:00.242Z,12.18
2018-02-06T14:11:04.578Z,14.25
2018-02-06T14:12:08.872Z,19.50
2018-02-06T14:13:13.838Z,22.25
2018-02-06T14:14:18.038Z,10.25
2018-02-06T14:15:22.234Z,12.35
2018-02-06T14:16:27.272Z,21.33
2018-02-06T14:17:32.180Z,12.20
2018-02-06T14:18:36.608Z,15.30
2018-02-06T14:19:40.924Z,12.80
2018-02-06T14:20:45.117Z,15.50
2018-02-06T14:21:50.131Z,24.48
2018-02-06T14:22:55.092Z,8.43
2018-02-06T14:24:00.601Z,11.60
2018-02-06T14:25:04.979Z,13.32
2018-02-06T14:26:09.191Z,12.23
2018-02-06T14:27:13.423Z,10.82
2018-02-06T14:28:17.600Z,12.88
2018-02-06T14:29:21.830Z,11.43
2018-02-06T14:30:26.281Z,9.65
2018-02-06T14:31:31.770Z,8.98
2018-02-06T14:32:36.285Z,11.63
2018-02-06T14:33:40.468Z,10.95
2018-02-06T14:34:44.672Z,9.00
2018-02-06T14:35:49.636Z,10.93
2018-02-06T14:36:53.853Z,13.43
2018-02-06T14:37:59.085Z,11.10
2018-02-06T14:39:03.881Z,9.23
2018-02-06T14:40:08.237Z,10.07
2018-02-06T14:41:13.203Z,10.23
2018-02-06T14:42:18.148Z,9.52
2018-02-06T14:43:22.389Z,10.88
2018-02-06T14:44:27.217Z,10.35
2018-02-06T14:45:32.008Z,13.25
2018-02-06T14:46:36.359Z,10.20
2018-02-06T14:47:40.571Z,9.23
2018-02-06T14:48:45.148Z,16.25
2018-02-06T14:49:49.336Z,9.05
2018-02-06T14:50:53.541Z,14.85
2018-02-06T14:51:58.434Z,10.52
2018-02-06T14:53:02.907Z,12.70
2018-02-06T14:54:07.389Z,8.85
2018-02-06T14:55:11.588Z,14.75
2018-02-06T14:56:15.786Z,11.15
2018-02-06T14:57:19.960Z,11.25
2018-02-06T14:58:24.126Z,9.45
2018-02-06T14:59:29.305Z,9.90
2018-02-06T15:00:34.240Z,10.90
2018-02-06T15:01:38.419Z,9.77
2018-02-06T15:02:42.660Z,12.20
2018-02-06T15:03:46.829Z,9.07
2018-02-06T15:04:51.376Z,10.32
2018-02-06T15:05:55.642Z,25.12
2018-02-06T15:07:00.175Z,9.38
2018-02-06T15:08:04.388Z,14.02
2018-02-06T15:09:08.690Z,13.07
2018-02-06T15:10:13.209Z,13.60
2018-02-06T15:11:17.409Z,13.50
2018-02-06T15:12:21.591Z,11.00
2018-02-06T15:13:26.072Z,11.10
2018-02-06T15:14:30.358Z,16.60
2018-02-06T15:15:34.853Z,12.60
2018-02-06T15:16:39.068Z,11.93
2018-02-06T15:17:43.258Z,13.77
2018-02-06T15:18:47.441Z,13.25
2018-02-06T15:19:52.387Z,18.92
2018-02-06T15:20:56.903Z,14.38
2018-02-06T15:22:01.546Z,18.87
2018-02-06T15:23:05.933Z,15.27
2018-02-06T15:24:10.132Z,11.00
2018-02-06T15:25:15.091Z,13.45
2018-02-06T15:26:19.329Z,15.45
2018-02-06T15:27:23.498Z,13.10
2018-02-06T15:28:27.853Z,19.00
2018-02-06T15:29:32.277Z,23.55
2018-02-06T15:30:36.714Z,22.52
2018-02-06T15:31:40.935Z,14.98
2018-02-06T15:32:45.876Z,17.70
2018-02-06T15:33:50.085Z,12.27
2018-02-06T15:34:54.299Z,13.35
2018-02-06T15:35:58.745Z,12.15
2018-02-06T15:37:02.992Z,14.40
2018-02-06T15:38:08.015Z,14.18
2018-02-06T15:39:12.242Z,20.02
2018-02-06T15:40:17.207Z,17.52
2018-02-06T15:41:21.400Z,11.82
2018-02-06T15:42:25.644Z,13.00
2018-02-06T15:43:29.964Z,13.88
2018-02-06T15:44:35.341Z,13.90
2018-02-06T15:45:40.350Z,13.90
2018-02-06T15:46:44.523Z,15.13
2018-02-06T15:47:48.686Z,11.30
2018-02-06T15:48:52.940Z,10.75